Time;durP1;ratioP1;P1;durP2;ratioP2;P2;SDS_P1;SDS_P2;PMS_P1;PMS_P2;Temp;Humidity;BMP_temperature;BMP_pressure;BME280_temperature;BME280_humidity;BME280_pressure;Samples;Min_cycle;Max_cycle;Signal;HPM_P1;HPM_P2
2022/03/06 00:02:22;;;;;;;26.48;13.32;;;-1.50;99.20;;;;;;5044511;28;20037;-68
2022/03/06 00:04:48;;;;;;;27.60;14.52;;;-1.50;99.50;;;;;;5048215;28;20345;-67
2022/03/06 00:07:13;;;;;;;28.35;14.00;;;-1.50;99.70;;;;;;5079617;28;20113;-67
2022/03/06 00:09:39;;;;;;;25.55;13.32;;;-1.50;99.80;;;;;;5046763;28;20037;-68
2022/03/06 00:12:05;;;;;;;23.35;12.65;;;-1.50;99.90;;;;;;5047983;28;20040;-67
2022/03/06 00:14:31;;;;;;;25.42;14.13;;;-1.50;99.90;;;;;;5050751;28;20057;-67
2022/03/06 00:16:56;;;;;;;24.73;13.00;;;-1.50;99.60;;;;;;5053062;28;20053;-67
2022/03/06 00:19:22;;;;;;;20.83;12.02;;;-1.40;99.90;;;;;;5049660;28;20100;-67
2022/03/06 00:21:47;;;;;;;23.20;11.90;;;-1.40;99.90;;;;;;5043065;28;20487;-67
2022/03/06 00:24:13;;;;;;;20.48;11.40;;;-1.40;99.90;;;;;;5053330;28;20041;-67
2022/03/06 00:26:39;;;;;;;23.77;12.77;;;-1.40;99.90;;;;;;5058690;28;20438;-68
2022/03/06 00:29:05;;;;;;;22.42;12.57;;;-1.30;99.90;;;;;;5041552;28;20056;-67
2022/03/06 00:31:31;;;;;;;26.00;12.55;;;-1.20;99.90;;;;;;5048540;28;20049;-67
2022/03/06 00:33:57;;;;;;;25.55;13.40;;;-1.20;99.90;;;;;;5050224;28;20113;-67
2022/03/06 00:36:22;;;;;;;22.65;11.85;;;-1.20;99.90;;;;;;5058065;28;20493;-67
2022/03/06 00:38:48;;;;;;;24.30;12.32;;;-1.10;99.90;;;;;;5054987;28;20407;-67
2022/03/06 00:41:15;;;;;;;22.88;12.70;;;-1.10;99.90;;;;;;5054884;28;20398;-67
2022/03/06 00:43:41;;;;;;;22.67;12.43;;;-1.10;99.90;;;;;;5053691;28;20430;-67
2022/03/06 00:46:07;;;;;;;22.60;12.95;;;-1.00;99.90;;;;;;5055554;28;20036;-67
2022/03/06 00:48:33;;;;;;;22.48;12.98;;;-1.00;99.90;;;;;;5060881;28;20032;-67
2022/03/06 00:50:58;;;;;;;21.55;11.50;;;-1.00;99.90;;;;;;5060134;28;20476;-67
2022/03/06 00:53:24;;;;;;;27.08;12.68;;;-1.00;99.90;;;;;;5049687;28;20065;-67
2022/03/06 00:55:50;;;;;;;22.75;12.55;;;-1.00;99.90;;;;;;5053754;28;20124;-67
2022/03/06 00:58:17;;;;;;;22.58;12.63;;;-0.90;99.90;;;;;;5058501;28;20044;-67
2022/03/06 01:00:46;;;;;;;22.85;12.82;;;-0.80;99.90;;;;;;5051309;28;20044;-67
2022/03/06 01:03:14;;;;;;;20.88;11.90;;;-0.80;99.90;;;;;;5034762;28;20045;-67
2022/03/06 01:05:41;;;;;;;23.02;12.45;;;-0.80;99.90;;;;;;5053821;28;20068;-67
2022/03/06 01:08:07;;;;;;;21.60;11.95;;;-0.70;99.90;;;;;;5045650;28;20052;-67
2022/03/06 01:10:35;;;;;;;23.10;11.93;;;-0.70;99.90;;;;;;5048407;28;20480;-67
2022/03/06 01:13:00;;;;;;;21.60;11.93;;;-0.60;99.90;;;;;;5048616;28;20674;-68
2022/03/06 01:15:26;;;;;;;21.42;11.73;;;-0.60;99.90;;;;;;5068235;28;20226;-67
2022/03/06 01:17:52;;;;;;;25.52;12.20;;;-0.70;99.90;;;;;;5064431;28;20044;-67
2022/03/06 01:20:19;;;;;;;20.08;10.65;;;-0.60;99.90;;;;;;5057436;28;20064;-67
2022/03/06 01:22:45;;;;;;;21.65;11.45;;;-0.60;99.90;;;;;;5054079;28;20361;-67
2022/03/06 01:25:11;;;;;;;19.60;10.73;;;-0.60;99.90;;;;;;5047288;28;20053;-67
2022/03/06 01:27:37;;;;;;;20.58;11.10;;;-0.60;99.90;;;;;;5050507;28;20033;-67
2022/03/06 01:30:05;;;;;;;18.77;10.63;;;-0.50;99.90;;;;;;5058567;28;20083;-67
2022/03/06 01:32:32;;;;;;;18.65;10.63;;;-0.40;99.90;;;;;;5053717;28;20072;-67
2022/03/06 01:34:57;;;;;;;16.65;10.35;;;-0.30;99.90;;;;;;5061042;28;20059;-67
2022/03/06 01:37:23;;;;;;;20.25;10.27;;;-0.20;99.90;;;;;;5050999;28;20469;-67
2022/03/06 01:39:48;;;;;;;20.15;9.80;;;-0.10;99.90;;;;;;5051376;28;20040;-67
2022/03/06 01:42:14;;;;;;;17.33;10.00;;;-0.10;99.90;;;;;;5047829;28;20037;-67
2022/03/06 01:44:39;;;;;;;16.38;10.48;;;-0.10;99.90;;;;;;5067684;28;20036;-67
2022/03/06 01:47:05;;;;;;;18.33;9.90;;;-0.10;99.90;;;;;;5059575;28;20037;-66
2022/03/06 01:49:31;;;;;;;17.80;9.13;;;-0.20;99.90;;;;;;5053109;28;20507;-67
2022/03/06 01:51:56;;;;;;;16.73;10.10;;;-0.20;99.90;;;;;;5048995;28;20041;-67
2022/03/06 01:54:22;;;;;;;22.00;9.77;;;-0.10;99.90;;;;;;5060995;28;20385;-67
2022/03/06 01:56:48;;;;;;;16.70;9.20;;;-0.10;99.90;;;;;;5054341;28;20054;-67
2022/03/06 01:59:14;;;;;;;16.08;8.43;;;0.00;99.90;;;;;;5051706;28;20048;-67
2022/03/06 02:01:39;;;;;;;17.08;10.43;;;0.00;99.90;;;;;;5050809;28;20037;-67
2022/03/06 02:04:05;;;;;;;18.67;9.23;;;0.10;99.90;;;;;;5061575;28;20362;-67
2022/03/06 02:06:31;;;;;;;19.20;9.27;;;0.10;99.90;;;;;;5050393;28;20136;-67
2022/03/06 02:08:57;;;;;;;17.25;9.20;;;0.20;99.90;;;;;;5056474;28;20060;-67
2022/03/06 02:11:24;;;;;;;17.08;10.00;;;0.20;99.90;;;;;;5052153;28;20550;-67
2022/03/06 02:13:50;;;;;;;15.07;8.98;;;0.20;99.70;;;;;;5056025;28;20037;-67
2022/03/06 02:16:16;;;;;;;13.18;8.73;;;0.30;99.90;;;;;;5057922;28;20697;-67
2022/03/06 02:18:41;;;;;;;17.63;9.57;;;0.30;99.70;;;;;;5034293;28;20047;-66
2022/03/06 02:21:09;;;;;;;14.60;8.32;;;0.30;99.90;;;;;;5033895;28;20394;-67
2022/03/06 02:23:34;;;;;;;15.10;8.43;;;0.30;99.50;;;;;;5061953;28;20093;-67
2022/03/06 02:26:00;;;;;;;15.43;8.90;;;0.40;99.50;;;;;;5061257;28;20082;-67
2022/03/06 02:28:26;;;;;;;14.48;9.02;;;0.40;99.30;;;;;;5063887;28;20361;-67
2022/03/06 02:30:52;;;;;;;16.90;8.75;;;0.40;99.20;;;;;;5066565;28;20115;-67
2022/03/06 02:33:18;;;;;;;16.48;8.32;;;0.50;99.40;;;;;;5060771;28;20376;-67
2022/03/06 02:35:44;;;;;;;15.98;7.97;;;0.50;99.20;;;;;;5056419;28;20044;-66
2022/03/06 02:38:09;;;;;;;13.85;8.32;;;0.50;99.00;;;;;;5053135;28;20040;-67
2022/03/06 02:40:42;;;;;;;15.25;8.48;;;0.60;99.00;;;;;;5056686;28;20029;-67
2022/03/06 02:43:10;;;;;;;16.98;8.50;;;0.60;98.70;;;;;;5055168;28;20079;-68
2022/03/06 02:45:38;;;;;;;18.90;9.68;;;0.60;98.70;;;;;;5042649;28;20052;-67
2022/03/06 02:48:04;;;;;;;15.60;9.00;;;0.60;98.90;;;;;;5053517;28;20087;-67
2022/03/06 02:50:32;;;;;;;14.43;8.65;;;0.60;98.90;;;;;;5041028;28;20068;-67
2022/03/06 02:52:59;;;;;;;14.82;8.82;;;0.60;99.10;;;;;;5056136;28;20033;-67
2022/03/06 02:55:25;;;;;;;15.15;9.18;;;0.60;98.90;;;;;;5044529;28;20042;-67
2022/03/06 02:57:51;;;;;;;11.18;7.68;;;0.60;99.10;;;;;;5047645;28;20041;-67
2022/03/06 03:00:18;;;;;;;13.75;7.97;;;0.60;98.90;;;;;;5040454;28;20040;-67
2022/03/06 03:02:45;;;;;;;12.85;7.70;;;0.60;98.90;;;;;;5055012;28;20143;-67
2022/03/06 03:05:12;;;;;;;14.05;8.23;;;0.60;98.80;;;;;;5053864;28;20505;-67
2022/03/06 03:07:39;;;;;;;15.55;8.60;;;0.50;98.90;;;;;;5048561;28;20361;-67
2022/03/06 03:10:06;;;;;;;12.45;8.15;;;0.50;99.00;;;;;;5056484;28;20083;-67
2022/03/06 03:12:32;;;;;;;14.13;8.43;;;0.30;99.00;;;;;;5059953;28;20093;-67
2022/03/06 03:14:57;;;;;;;11.93;8.27;;;0.30;98.80;;;;;;5032849;28;20045;-67
2022/03/06 03:17:23;;;;;;;14.02;8.88;;;0.20;98.90;;;;;;5059706;28;20051;-67
2022/03/06 03:19:49;;;;;;;11.60;7.93;;;0.20;99.20;;;;;;5056901;28;20353;-66
2022/03/06 03:22:14;;;;;;;12.35;8.25;;;0.10;99.30;;;;;;5030994;28;20106;-67
2022/03/06 03:24:40;;;;;;;10.77;7.60;;;0.10;99.30;;;;;;5041844;28;20040;-67
2022/03/06 03:27:05;;;;;;;17.35;8.38;;;0.00;99.30;;;;;;5052479;28;20061;-68
2022/03/06 03:29:31;;;;;;;11.60;7.80;;;-0.10;99.40;;;;;;5053120;28;20029;-67
2022/03/06 03:31:56;;;;;;;13.95;8.15;;;-0.10;99.40;;;;;;5061348;28;20153;-67
2022/03/06 03:34:22;;;;;;;12.73;8.35;;;-0.20;99.50;;;;;;5054485;28;20033;-67
2022/03/06 03:36:48;;;;;;;10.82;7.68;;;-0.30;99.90;;;;;;5050986;28;20055;-66
2022/03/06 03:39:13;;;;;;;13.85;8.23;;;-0.30;99.80;;;;;;5031954;28;20149;-67
2022/03/06 03:41:39;;;;;;;15.75;8.20;;;-0.40;99.90;;;;;;5048044;28;20155;-68
2022/03/06 03:44:05;;;;;;;12.30;8.30;;;-0.40;99.90;;;;;;5036989;28;20469;-66
2022/03/06 03:46:30;;;;;;;14.10;8.68;;;-0.50;99.90;;;;;;5050950;28;20511;-67
2022/03/06 03:48:56;;;;;;;11.02;8.05;;;-0.50;99.90;;;;;;5036491;28;20060;-67
2022/03/06 03:51:21;;;;;;;13.35;8.63;;;-0.60;99.90;;;;;;5058569;28;20029;-66
2022/03/06 03:53:47;;;;;;;14.38;8.35;;;-0.70;99.90;;;;;;5049702;28;20467;-67
2022/03/06 03:56:13;;;;;;;16.50;9.68;;;-0.70;99.90;;;;;;5061987;28;20447;-67
2022/03/06 03:58:38;;;;;;;12.73;7.72;;;-0.70;99.90;;;;;;5057713;28;20083;-67
2022/03/06 04:01:04;;;;;;;12.43;7.68;;;-0.70;99.90;;;;;;5059324;28;20040;-66
2022/03/06 04:03:29;;;;;;;11.73;8.30;;;-0.80;99.90;;;;;;5040515;28;20131;-67
2022/03/06 04:05:55;;;;;;;10.40;7.22;;;-0.80;99.90;;;;;;5058202;28;20040;-66
2022/03/06 04:08:21;;;;;;;12.00;8.00;;;-0.80;99.90;;;;;;5055192;28;20103;-67
2022/03/06 04:10:46;;;;;;;11.45;7.43;;;-0.90;99.90;;;;;;5050899;28;20481;-67
2022/03/06 04:13:12;;;;;;;12.43;7.90;;;-0.90;99.90;;;;;;5062436;28;20364;-66
2022/03/06 04:15:38;;;;;;;14.45;7.97;;;-1.00;99.90;;;;;;5060447;28;20048;-67
2022/03/06 04:18:04;;;;;;;12.00;7.18;;;-1.00;99.90;;;;;;5040597;28;20155;-67
2022/03/06 04:20:30;;;;;;;13.25;7.32;;;-1.10;99.90;;;;;;5056477;28;20471;-67
2022/03/06 04:22:56;;;;;;;9.93;7.00;;;-1.00;99.90;;;;;;5045150;28;20048;-67
2022/03/06 04:25:22;;;;;;;9.70;7.10;;;-1.10;99.90;;;;;;5053952;28;20051;-67
2022/03/06 04:27:47;;;;;;;10.38;6.85;;;-1.10;99.90;;;;;;5052854;28;20037;-67
2022/03/06 04:30:13;;;;;;;13.57;6.70;;;-1.10;99.90;;;;;;5059111;28;20060;-67
2022/03/06 04:32:38;;;;;;;13.23;6.30;;;-1.10;99.90;;;;;;5050755;28;20040;-68
2022/03/06 04:35:06;;;;;;;12.07;6.90;;;-1.10;99.90;;;;;;5047869;28;20037;-66
2022/03/06 04:37:31;;;;;;;8.95;5.93;;;-1.10;99.90;;;;;;5047888;28;20040;-67
2022/03/06 04:39:57;;;;;;;10.70;6.25;;;-1.10;99.90;;;;;;5049676;28;20536;-67
2022/03/06 04:42:22;;;;;;;13.30;6.50;;;-1.00;99.90;;;;;;5036037;28;20040;-66
2022/03/06 04:44:48;;;;;;;11.55;6.65;;;-1.00;99.90;;;;;;5046811;28;20044;-67
2022/03/06 04:47:14;;;;;;;9.73;5.93;;;-1.00;99.90;;;;;;5049981;28;20041;-67
2022/03/06 04:49:40;;;;;;;9.80;6.18;;;-1.00;99.90;;;;;;5061350;28;20488;-67
2022/03/06 04:52:06;;;;;;;9.00;5.63;;;-1.00;99.90;;;;;;5038367;28;20045;-66
2022/03/06 04:54:31;;;;;;;13.20;5.90;;;-0.90;99.90;;;;;;5066445;28;20052;-67
2022/03/06 04:56:57;;;;;;;11.27;6.25;;;-0.90;99.90;;;;;;5044220;28;20041;-66
2022/03/06 04:59:23;;;;;;;8.95;6.03;;;-0.90;99.90;;;;;;5051790;28;20610;-67
2022/03/06 05:01:49;;;;;;;13.10;6.07;;;-1.00;99.90;;;;;;5032592;28;20149;-66
2022/03/06 05:04:15;;;;;;;12.45;6.05;;;-0.90;99.90;;;;;;5032820;28;20051;-67
2022/03/06 05:06:40;;;;;;;10.85;5.25;;;-0.90;99.90;;;;;;5046682;28;20367;-67
2022/03/06 05:09:06;;;;;;;10.35;5.65;;;-0.90;99.90;;;;;;5048388;28;20044;-66
2022/03/06 05:11:33;;;;;;;9.02;4.95;;;-1.00;99.90;;;;;;5051809;28;20052;-67
2022/03/06 05:13:58;;;;;;;8.25;5.45;;;-1.00;99.90;;;;;;5049098;28;20477;-67
2022/03/06 05:16:24;;;;;;;11.02;6.20;;;-1.00;99.90;;;;;;5060151;28;20095;-66
2022/03/06 05:18:50;;;;;;;10.02;5.32;;;-1.00;99.90;;;;;;5045526;28;20045;-67
2022/03/06 05:21:15;;;;;;;8.48;5.80;;;-1.10;99.90;;;;;;5035790;28;20040;-66
2022/03/06 05:23:41;;;;;;;9.63;5.10;;;-1.10;99.90;;;;;;5044127;28;20055;-67
2022/03/06 05:26:07;;;;;;;11.68;5.82;;;-1.20;99.90;;;;;;5050183;28;20092;-66
2022/03/06 05:28:33;;;;;;;9.20;5.20;;;-1.20;99.90;;;;;;5050426;28;20519;-66
2022/03/06 05:30:58;;;;;;;10.35;5.10;;;-1.20;99.90;;;;;;5053485;28;20025;-67
2022/03/06 05:33:24;;;;;;;7.93;5.07;;;-1.30;99.90;;;;;;5055694;28;20366;-67
2022/03/06 05:35:50;;;;;;;8.90;5.13;;;-1.30;99.90;;;;;;5041555;28;20123;-67
2022/03/06 05:38:15;;;;;;;9.80;5.22;;;-1.30;99.90;;;;;;5049857;28;20052;-66
2022/03/06 05:40:41;;;;;;;9.50;5.75;;;-1.40;99.90;;;;;;5052408;28;20044;-67
2022/03/06 05:43:07;;;;;;;9.40;4.63;;;-1.40;99.90;;;;;;5055353;28;20123;-67
2022/03/06 05:45:33;;;;;;;7.68;4.93;;;-1.40;99.90;;;;;;5052240;28;20383;-66
2022/03/06 05:47:58;;;;;;;7.85;4.85;;;-1.40;99.90;;;;;;5056943;28;20100;-67
2022/03/06 05:50:24;;;;;;;12.63;5.30;;;-1.40;99.90;;;;;;5049325;28;20489;-67
2022/03/06 05:52:50;;;;;;;10.35;5.03;;;-1.50;99.90;;;;;;5035406;28;20039;-67
2022/03/06 05:55:16;;;;;;;10.13;4.70;;;-1.50;99.90;;;;;;5055514;28;20036;-67
2022/03/06 05:57:42;;;;;;;7.93;5.45;;;-1.50;99.90;;;;;;5034055;28;20037;-67
2022/03/06 06:00:08;;;;;;;8.07;5.07;;;-1.50;99.90;;;;;;5063870;28;20078;-67
2022/03/06 06:02:38;;;;;;;10.65;4.82;;;-1.60;99.90;;;;;;5032483;28;20037;-67
2022/03/06 06:05:06;;;;;;;8.15;4.53;;;-1.60;99.90;;;;;;5067366;28;20375;-67
2022/03/06 06:07:32;;;;;;;8.10;5.30;;;-1.60;99.90;;;;;;5055232;28;20033;-67
2022/03/06 06:09:58;;;;;;;7.30;4.55;;;-1.50;99.90;;;;;;5079016;28;20083;-67
2022/03/06 06:12:23;;;;;;;9.18;4.75;;;-1.50;99.90;;;;;;5061309;28;20029;-67
2022/03/06 06:14:49;;;;;;;11.23;5.22;;;-1.50;99.90;;;;;;5054306;28;20053;-67
2022/03/06 06:17:14;;;;;;;8.63;4.82;;;-1.50;99.90;;;;;;5057845;28;20040;-67
2022/03/06 06:19:40;;;;;;;8.23;4.68;;;-1.50;99.90;;;;;;5062430;28;20430;-67
2022/03/06 06:22:06;;;;;;;8.40;5.30;;;-1.60;99.90;;;;;;5054103;28;20131;-67
2022/03/06 06:24:32;;;;;;;8.50;4.35;;;-1.50;99.90;;;;;;5056260;28;20062;-67
2022/03/06 06:26:58;;;;;;;12.30;5.40;;;-1.60;99.90;;;;;;5052438;28;20045;-67
2022/03/06 06:29:24;;;;;;;8.25;4.97;;;-1.60;99.90;;;;;;5056635;28;20372;-67
2022/03/06 06:31:51;;;;;;;9.45;5.68;;;-1.60;99.90;;;;;;5042217;28;20040;-67
2022/03/06 06:34:17;;;;;;;9.18;4.75;;;-1.60;99.90;;;;;;5048160;28;20041;-67
2022/03/06 06:36:43;;;;;;;10.43;4.82;;;-1.60;99.90;;;;;;5049654;28;20136;-67
2022/03/06 06:39:09;;;;;;;6.15;4.22;;;-1.50;99.90;;;;;;5044971;28;20056;-67
2022/03/06 06:41:39;;;;;;;9.25;5.40;;;-1.50;99.90;;;;;;5050557;28;20127;-67
2022/03/06 06:44:05;;;;;;;;;;;-1.40;99.90;;;;;;5066512;28;20503;-67
2022/03/06 06:46:31;;;;;;;9.68;5.50;;;-1.40;99.90;;;;;;5062341;28;19928;-67
2022/03/06 06:48:57;;;;;;;9.10;5.60;;;-1.30;99.90;;;;;;5049209;28;20033;-67
2022/03/06 06:51:23;;;;;;;8.63;5.38;;;-1.20;99.90;;;;;;5046777;28;20041;-67
2022/03/06 06:53:48;;;;;;;12.02;5.85;;;-1.30;99.90;;;;;;5055212;28;20067;-67
2022/03/06 06:56:14;;;;;;;10.57;4.57;;;-1.30;99.90;;;;;;5065430;28;20056;-67
2022/03/06 06:58:40;;;;;;;9.15;4.85;;;-1.20;99.90;;;;;;5054882;28;20056;-67
2022/03/06 07:01:05;;;;;;;7.45;4.85;;;-1.20;99.90;;;;;;5055453;28;20537;-67
2022/03/06 07:03:31;;;;;;;12.05;4.68;;;-1.20;99.90;;;;;;5031683;28;20041;-68
2022/03/06 07:05:58;;;;;;;10.10;5.32;;;-1.10;99.90;;;;;;5050419;28;20056;-67
2022/03/06 07:08:24;;;;;;;13.68;5.43;;;-1.10;99.90;;;;;;5038367;28;20029;-67
2022/03/06 07:10:49;;;;;;;7.53;4.75;;;-1.00;99.90;;;;;;5048884;28;20029;-67
2022/03/06 07:13:15;;;;;;;11.15;5.03;;;-0.90;99.90;;;;;;5062976;28;20041;-67
2022/03/06 07:15:41;;;;;;;6.63;4.05;;;-0.90;99.90;;;;;;5039468;28;20060;-67
2022/03/06 07:18:06;;;;;;;7.32;3.88;;;-0.70;99.90;;;;;;5055232;28;20461;-67
2022/03/06 07:20:32;;;;;;;8.65;4.40;;;-0.60;99.90;;;;;;5050938;28;20477;-67
2022/03/06 07:22:58;;;;;;;6.57;3.85;;;-0.50;99.90;;;;;;5055899;28;20082;-67
2022/03/06 07:25:24;;;;;;;8.57;3.72;;;-0.20;99.90;;;;;;5033003;28;20048;-67
2022/03/06 07:27:49;;;;;;;8.13;3.72;;;-0.10;99.90;;;;;;5051588;28;20040;-67
2022/03/06 07:30:15;;;;;;;8.77;4.10;;;-0.10;99.90;;;;;;5053165;28;20583;-67
2022/03/06 07:32:42;;;;;;;5.57;3.72;;;0.10;99.90;;;;;;5052828;28;20041;-67
2022/03/06 07:35:08;;;;;;;5.93;3.85;;;0.40;99.90;;;;;;5055376;28;20464;-66
2022/03/06 07:37:34;;;;;;;5.22;3.45;;;0.90;99.80;;;;;;5046995;28;20454;-66
2022/03/06 07:40:00;;;;;;;3.80;3.30;;;1.20;98.90;;;;;;5050884;28;20167;-67
2022/03/06 07:42:25;;;;;;;4.25;3.25;;;1.60;97.90;;;;;;5050706;28;20033;-68
2022/03/06 07:44:51;;;;;;;6.15;3.65;;;2.00;97.00;;;;;;5056160;28;20033;-67
2022/03/06 07:47:16;;;;;;;5.72;3.17;;;2.40;98.00;;;;;;5050189;28;20098;-67
2022/03/06 07:49:42;;;;;;;4.70;3.28;;;2.80;96.90;;;;;;5061230;28;20033;-67
2022/03/06 07:52:07;;;;;;;5.32;3.10;;;3.00;96.90;;;;;;5052422;28;20102;-68
2022/03/06 07:54:33;;;;;;;5.32;3.22;;;3.00;96.50;;;;;;5042820;28;20066;-68
2022/03/06 07:56:58;;;;;;;6.03;3.10;;;3.00;95.50;;;;;;5050647;28;20037;-68
2022/03/06 07:59:25;;;;;;;5.43;2.88;;;2.80;93.30;;;;;;5052657;28;20040;-69
2022/03/06 08:01:52;;;;;;;4.85;3.40;;;2.80;93.30;;;;;;5060342;28;20056;-69
2022/03/06 08:04:18;;;;;;;5.32;3.20;;;2.70;92.60;;;;;;5060728;28;20036;-68
2022/03/06 08:06:43;;;;;;;4.10;3.00;;;2.70;93.30;;;;;;5035385;28;20040;-68
2022/03/06 08:09:09;;;;;;;6.20;2.95;;;2.70;92.00;;;;;;5055392;28;20120;-69
2022/03/06 08:11:34;;;;;;;4.05;2.58;;;2.70;91.40;;;;;;5056005;28;20029;-68
2022/03/06 08:14:00;;;;;;;5.78;2.90;;;2.80;91.00;;;;;;5032288;28;20037;-69
2022/03/06 08:16:25;;;;;;;4.07;3.03;;;2.90;90.10;;;;;;5056011;28;20045;-69
2022/03/06 08:18:51;;;;;;;3.67;2.65;;;2.80;90.10;;;;;;5053582;28;20049;-69
2022/03/06 08:21:16;;;;;;;5.05;2.85;;;3.00;90.40;;;;;;5058149;28;20040;-69
2022/03/06 08:23:42;;;;;;;4.50;2.92;;;3.10;89.50;;;;;;5056020;28;20040;-69
2022/03/06 08:26:07;;;;;;;5.35;3.08;;;3.10;89.80;;;;;;5049180;28;20044;-70
2022/03/06 08:28:33;;;;;;;4.38;2.92;;;3.20;87.40;;;;;;5048186;28;20036;-70
2022/03/06 08:30:58;;;;;;;4.55;2.78;;;3.20;85.90;;;;;;5054010;28;20033;-70
2022/03/06 08:33:24;;;;;;;4.93;2.70;;;3.30;86.40;;;;;;5038057;28;20028;-70
2022/03/06 08:35:50;;;;;;;5.50;2.97;;;3.20;82.90;;;;;;5049895;28;20033;-71
2022/03/06 08:38:15;;;;;;;4.65;2.60;;;3.20;80.00;;;;;;5046356;28;20099;-69
2022/03/06 08:40:41;;;;;;;4.47;2.72;;;3.20;82.20;;;;;;5055153;28;20051;-70
2022/03/06 08:43:06;;;;;;;6.25;2.58;;;3.40;81.10;;;;;;5060004;28;20045;-70
2022/03/06 08:45:32;;;;;;;3.13;2.63;;;3.40;81.50;;;;;;5032921;28;20443;-70
2022/03/06 08:47:58;;;;;;;3.08;2.72;;;3.40;79.20;;;;;;5062102;28;20047;-70
2022/03/06 08:50:23;;;;;;;3.83;2.70;;;3.40;80.10;;;;;;5046542;28;20025;-69
2022/03/06 08:52:49;;;;;;;3.97;2.72;;;3.40;75.40;;;;;;5054503;28;20175;-70
2022/03/06 08:55:15;;;;;;;6.18;3.10;;;3.40;73.50;;;;;;5034130;28;20086;-69
2022/03/06 08:57:40;;;;;;;5.32;2.85;;;3.40;76.90;;;;;;5040108;28;20043;-69
2022/03/06 09:00:07;;;;;;;4.32;2.40;;;3.50;76.70;;;;;;5047936;28;20050;-70
2022/03/06 09:02:33;;;;;;;5.32;3.10;;;3.60;76.60;;;;;;5060432;28;20510;-70
2022/03/06 09:04:58;;;;;;;3.67;2.63;;;3.60;73.90;;;;;;5037024;28;20041;-70
2022/03/06 09:07:24;;;;;;;3.20;2.78;;;3.70;74.60;;;;;;5048559;28;20039;-69
2022/03/06 09:09:50;;;;;;;5.05;2.63;;;3.70;71.80;;;;;;5032593;28;20462;-69
2022/03/06 09:12:16;;;;;;;4.57;2.80;;;3.70;73.50;;;;;;5049642;28;20361;-70
2022/03/06 09:14:42;;;;;;;4.30;2.78;;;3.70;72.80;;;;;;5054540;28;20049;-70
2022/03/06 09:17:09;;;;;;;6.10;3.05;;;3.80;74.70;;;;;;5046461;28;20547;-69
2022/03/06 09:19:35;;;;;;;6.75;3.65;;;3.90;73.80;;;;;;5054672;28;20041;-69
2022/03/06 09:22:00;;;;;;;4.45;2.83;;;3.90;70.10;;;;;;5051405;28;20050;-69
2022/03/06 09:24:26;;;;;;;5.97;3.05;;;4.00;71.10;;;;;;5055080;28;20128;-69
2022/03/06 09:26:51;;;;;;;5.93;3.33;;;4.00;72.00;;;;;;5049123;28;20064;-70
2022/03/06 09:29:17;;;;;;;5.38;2.67;;;4.30;72.30;;;;;;5036984;28;20182;-70
2022/03/06 09:31:43;;;;;;;5.63;2.92;;;4.20;72.70;;;;;;5059851;28;20032;-70
2022/03/06 09:34:09;;;;;;;4.75;3.13;;;4.40;72.90;;;;;;5061800;28;20071;-69
2022/03/06 09:36:36;;;;;;;7.68;3.03;;;4.40;71.20;;;;;;5039921;28;20060;-69
2022/03/06 09:39:03;;;;;;;6.32;3.10;;;4.40;71.00;;;;;;5061050;28;20420;-70
2022/03/06 09:41:29;;;;;;;3.83;3.30;;;4.50;72.00;;;;;;5065698;28;20123;-70
2022/03/06 09:43:56;;;;;;;2.65;2.45;;;4.50;70.80;;;;;;5055216;28;20532;-69
2022/03/06 09:46:22;;;;;;;5.18;3.00;;;4.70;71.40;;;;;;5053270;28;20076;-69
2022/03/06 09:48:48;;;;;;;6.82;2.85;;;4.70;70.90;;;;;;5049030;28;20061;-70
2022/03/06 09:51:14;;;;;;;3.47;2.70;;;4.60;69.80;;;;;;5060156;28;20456;-69
2022/03/06 09:53:39;;;;;;;4.28;2.65;;;4.60;67.40;;;;;;5069011;28;20074;-69
2022/03/06 09:56:05;;;;;;;3.55;2.80;;;4.60;68.80;;;;;;5068699;28;20205;-69
2022/03/06 09:58:31;;;;;;;4.05;2.53;;;4.60;68.80;;;;;;5052084;28;20476;-69
2022/03/06 10:00:57;;;;;;;3.42;2.80;;;4.70;69.30;;;;;;5056022;28;20047;-69
2022/03/06 10:03:24;;;;;;;5.47;3.00;;;5.00;69.90;;;;;;5064432;28;20082;-70
2022/03/06 10:05:51;;;;;;;3.30;2.50;;;5.00;69.30;;;;;;5069788;28;20476;-70
2022/03/06 10:08:25;;;;;;;4.30;2.83;;;4.80;68.90;;;;;;5060663;28;20609;-70
2022/03/06 10:10:54;;;;;;;2.97;2.45;;;4.90;68.50;;;;;;5034636;28;20037;-70
2022/03/06 10:13:21;;;;;;;3.47;2.58;;;4.90;69.30;;;;;;5050901;28;20037;-70
2022/03/06 10:16:08;;;;;;;5.72;2.65;;;4.90;68.70;;;;;;5056499;28;20159;-70
2022/03/06 10:18:39;;;;;;;2.88;2.58;;;5.00;66.20;;;;;;5045780;28;20037;-70
2022/03/06 10:21:08;;;;;;;5.82;2.70;;;4.90;68.10;;;;;;5064673;28;20419;-70
2022/03/06 10:23:34;;;;;;;4.10;2.65;;;5.00;68.70;;;;;;5052153;28;20044;-69
2022/03/06 10:26:03;;;;;;;5.45;2.80;;;5.30;66.70;;;;;;5040458;28;20037;-69
2022/03/06 10:28:29;;;;;;;5.67;3.20;;;5.30;65.90;;;;;;5059899;28;20037;-70
2022/03/06 10:31:03;;;;;;;4.55;2.40;;;5.30;66.70;;;;;;5060525;28;20340;-69
2022/03/06 10:33:28;;;;;;;5.32;2.63;;;5.50;66.10;;;;;;5052603;28;20134;-69
2022/03/06 10:35:58;;;;;;;6.38;2.65;;;5.70;66.70;;;;;;5065964;28;20583;-70
2022/03/06 10:38:28;;;;;;;4.30;2.10;;;5.60;65.90;;;;;;5035726;28;20037;-70
2022/03/06 10:40:55;;;;;;;5.35;2.63;;;5.90;66.40;;;;;;5037634;28;20039;-70
2022/03/06 10:43:33;;;;;;;3.10;2.47;;;6.00;67.00;;;;;;5074153;28;20102;-70
2022/03/06 10:46:16;;;;;;;5.15;2.92;;;6.30;68.00;;;;;;5054212;28;20063;-70
2022/03/06 10:48:59;;;;;;;3.50;2.28;;;6.50;64.80;;;;;;5055123;28;20037;-70
2022/03/06 10:51:26;;;;;;;5.57;2.60;;;6.40;64.00;;;;;;5057151;28;20043;-70
2022/03/06 10:54:00;;;;;;;4.43;2.88;;;6.40;65.40;;;;;;5059199;28;20137;-70
2022/03/06 10:56:27;;;;;;;5.60;2.50;;;6.50;65.20;;;;;;5062563;28;20390;-69
2022/03/06 10:58:54;;;;;;;4.25;2.78;;;6.70;63.80;;;;;;5058713;28;20477;-69
2022/03/06 11:01:21;;;;;;;4.68;2.45;;;6.60;63.50;;;;;;5054132;28;20048;-69
2022/03/06 11:03:49;;;;;;;3.60;2.58;;;6.60;64.20;;;;;;5062063;28;20033;-71
2022/03/06 11:06:18;;;;;;;4.32;2.80;;;6.90;63.50;;;;;;5054828;28;20125;-68
2022/03/06 11:08:44;;;;;;;3.80;2.80;;;6.90;62.70;;;;;;5048552;28;20036;-70
2022/03/06 11:11:09;;;;;;;3.78;2.53;;;6.60;62.90;;;;;;5057916;28;20491;-69
2022/03/06 11:13:36;;;;;;;6.43;3.20;;;6.70;63.70;;;;;;5060785;28;20060;-69
2022/03/06 11:16:02;;;;;;;5.35;3.00;;;6.60;63.80;;;;;;5071126;28;20065;-69
2022/03/06 11:18:29;;;;;;;4.72;3.03;;;6.60;63.60;;;;;;5054229;28;20041;-69
2022/03/06 11:20:58;;;;;;;5.97;2.90;;;6.40;64.50;;;;;;5059212;28;20048;-69
2022/03/06 11:23:38;;;;;;;4.63;2.70;;;6.30;63.70;;;;;;5053105;28;20546;-70
2022/03/06 11:26:07;;;;;;;;;;;6.30;63.70;;;;;;5051558;28;20047;-70
2022/03/06 11:28:38;;;;;;;3.42;2.80;;;6.60;62.80;;;;;;5068901;28;21785;-70
2022/03/06 11:31:04;;;;;;;5.35;2.72;;;6.70;64.50;;;;;;5050957;28;20045;-69
2022/03/06 11:33:30;;;;;;;4.25;2.58;;;6.90;63.60;;;;;;5050453;28;20180;-69
2022/03/06 11:35:56;;;;;;;3.50;2.78;;;7.00;63.80;;;;;;5050954;28;20036;-69
2022/03/06 11:38:37;;;;;;;5.28;2.75;;;7.00;63.50;;;;;;5049213;28;20043;-70
2022/03/06 11:41:10;;;;;;;3.55;2.38;;;7.10;63.20;;;;;;5065034;28;20036;-70
2022/03/06 11:43:48;;;;;;;3.47;2.45;;;7.10;63.10;;;;;;5070650;28;20086;-69
2022/03/06 11:46:24;;;;;;;3.90;2.50;;;7.30;62.70;;;;;;5055084;28;20041;-70
2022/03/06 11:48:50;;;;;;;3.55;2.63;;;7.20;61.90;;;;;;5033138;28;20045;-70
2022/03/06 11:51:17;;;;;;;4.13;3.00;;;7.10;61.80;;;;;;5065992;28;20036;-70
2022/03/06 11:53:47;;;;;;;3.58;2.72;;;7.10;62.60;;;;;;5050529;28;20040;-70
2022/03/06 11:56:31;;;;;;;8.43;2.73;;;7.30;61.90;;;;;;5070968;28;20091;-70
2022/03/06 11:58:58;;;;;;;5.22;3.05;;;7.20;61.80;;;;;;5044398;28;20333;-69
2022/03/06 12:01:27;;;;;;;4.10;2.95;;;7.30;61.90;;;;;;5051199;28;20442;-70
2022/03/06 12:04:01;;;;;;;5.25;2.88;;;7.30;60.80;;;;;;5061138;28;20062;-69
2022/03/06 12:06:28;;;;;;;3.50;2.60;;;7.00;61.60;;;;;;5050614;28;20041;-70
2022/03/06 12:08:54;;;;;;;5.10;2.75;;;7.10;62.80;;;;;;5055352;28;20472;-70
2022/03/06 12:11:21;;;;;;;4.55;3.30;;;7.10;63.10;;;;;;5070455;28;20051;-70
2022/03/06 12:13:50;;;;;;;4.00;3.00;;;7.20;62.40;;;;;;5070320;28;20067;-70
2022/03/06 12:16:17;;;;;;;5.50;2.65;;;7.20;63.00;;;;;;5068682;28;20472;-71
2022/03/06 12:19:01;;;;;;;3.97;3.20;;;7.50;62.20;;;;;;5061741;28;20121;-70
2022/03/06 12:21:37;;;;;;;7.50;3.20;;;7.80;60.90;;;;;;5055586;28;20048;-71
2022/03/06 12:24:10;;;;;;;5.35;2.92;;;7.90;60.10;;;;;;5059401;28;20496;-70
2022/03/06 12:26:45;;;;;;;5.50;3.00;;;8.10;58.80;;;;;;5034663;28;20049;-72
2022/03/06 12:29:48;;;;;;;4.80;2.85;;;8.20;58.40;;;;;;5053147;28;20091;-71
2022/03/06 12:32:29;;;;;;;5.05;2.90;;;8.30;58.30;;;;;;5050994;28;20036;-71
2022/03/06 12:34:57;;;;;;;;;;;8.10;58.90;;;;;;5052558;28;20127;-71
2022/03/06 12:37:47;;;;;;;4.82;2.78;;;8.10;58.10;;;;;;5047270;28;19924;-70
2022/03/06 12:40:15;;;;;;;5.28;2.70;;;8.40;59.80;;;;;;5061704;28;20382;-69
2022/03/06 12:42:42;;;;;;;4.65;2.97;;;8.30;60.10;;;;;;5054178;28;20053;-69
2022/03/06 12:45:10;;;;;;;4.95;2.90;;;8.30;60.50;;;;;;5051199;28;20048;-70
2022/03/06 12:47:38;;;;;;;5.53;3.17;;;8.40;60.30;;;;;;5051613;28;20041;-70